In Rescue
 
Open Full Screen Window  High Contrast Mode
Wind Gusting 00 knots
05
July 24, 2024 4:29 PM EDT
Weather Information
Wind Direction
  270 °
Wind Speed
  05 kt (6 mph)
Wind Gust
  00 kt (0 mph)
Altimeter
30.12 in
Visibility
10 SM
Temperature
25° C
77° F
Dewpoint
20° C
68° F
Humidity
74%
1hr Rain Fall
00.00 in.
24hr Rain Fall
00.32 in.
Sky Condition
Scattered @ 11,000 ft
VFR

METAR KDLZ 242029Z AUTO 27005KT 10SM SCT110 25/20 A3012 RMK AO2

FAA Disclaimer: The data displayed is for advisory purposes only and is not to be used for flight planning or operations.